createdAt,value
2023-02-14T00:01:34.513Z,28.4
2023-02-14T00:07:12.417Z,26.4
2023-02-14T00:12:33.926Z,29.7
2023-02-14T00:17:55.273Z,28.5
2023-02-14T00:23:17.025Z,26.5
2023-02-14T00:28:54.137Z,29.6
2023-02-14T00:34:30.889Z,25.8
2023-02-14T00:39:52.207Z,29.7
2023-02-14T00:45:14.625Z,28.5
2023-02-14T00:50:06.159Z,26.5
2023-02-14T00:55:28.174Z,29.6
2023-02-14T01:01:06.255Z,29
2023-02-14T01:05:57.204Z,26.6
2023-02-14T01:11:19.255Z,29.6
2023-02-14T01:16:42.235Z,28.9
2023-02-14T01:21:48.358Z,26.6
2023-02-14T01:27:26.537Z,29.8
2023-02-14T01:33:05.468Z,28.3
2023-02-14T01:38:42.354Z,26.8
2023-02-14T01:44:20.458Z,30.5
2023-02-14T01:49:57.598Z,27.3
2023-02-14T01:55:34.353Z,28.6
2023-02-14T02:01:12.167Z,30
2023-02-14T02:06:34.623Z,26.8
2023-02-14T02:12:11.403Z,29.5
2023-02-14T02:17:50.859Z,28.5
2023-02-14T02:22:57.151Z,26.9
2023-02-14T02:28:34.220Z,30.4
2023-02-14T02:34:13.279Z,27.4
2023-02-14T02:39:50.931Z,28.6
2023-02-14T02:45:28.532Z,29.4
2023-02-14T02:51:06.402Z,29.1
2023-02-14T02:56:43.947Z,29.1
2023-02-14T03:02:21.517Z,26.5
2023-02-14T03:08:00.242Z,30.1
2023-02-14T03:13:37.921Z,27.7
2023-02-14T03:18:59.013Z,28.2
2023-02-14T03:24:37.330Z,30.4
2023-02-14T03:30:13.727Z,26.9
2023-02-14T03:35:51.562Z,29.6
2023-02-14T03:41:28.700Z,28.4
2023-02-14T03:46:51.617Z,27.6
2023-02-14T03:52:28.288Z,30.6
2023-02-14T03:58:05.685Z,27
2023-02-14T04:03:44.113Z,29.4
2023-02-14T04:09:20.664Z,28.8
2023-02-14T04:14:51.165Z,26.4
2023-02-14T04:20:29.174Z,30.3
2023-02-14T04:26:05.802Z,27.5
2023-02-14T04:31:43.701Z,28.7
2023-02-14T04:37:20.841Z,29.8
2023-02-14T04:42:57.572Z,26.8
2023-02-14T04:48:35.233Z,29.8
2023-02-14T04:53:58.195Z,25.8
2023-02-14T04:59:36.264Z,30
2023-02-14T05:05:14.365Z,28.3
2023-02-14T05:10:35.600Z,27.1
2023-02-14T05:15:57.412Z,30.6
2023-02-14T05:21:36.085Z,27.4
2023-02-14T05:27:12.869Z,28.9
2023-02-14T05:32:52.136Z,29.4
2023-02-14T05:38:30.085Z,26.6
2023-02-14T05:44:07.505Z,30
2023-02-14T05:55:06.334Z,28
2023-02-14T06:00:42.564Z,30.7
2023-02-14T06:06:21.274Z,27
2023-02-14T06:11:58.546Z,29.7
2023-02-14T06:17:36.001Z,28.4
2023-02-14T06:22:57.122Z,27.4
2023-02-14T06:28:22.088Z,30.6
2023-02-14T06:34:01.691Z,27.3
2023-02-14T06:39:38.146Z,29.3
2023-02-14T06:44:45.193Z,29.1
2023-02-14T06:49:51.691Z,26.8
2023-02-14T06:55:14.320Z,30.1
2023-02-14T07:00:52.418Z,28.1
2023-02-14T07:06:30.674Z,28.4
2023-02-14T07:11:52.482Z,30.2
2023-02-14T07:17:29.399Z,26.9
2023-02-14T07:23:06.557Z,30.1
2023-02-14T07:28:45.131Z,28.1
2023-02-14T07:34:24.734Z,29
2023-02-14T07:40:02.160Z,29.4
2023-02-14T07:45:54.187Z,27.4
2023-02-14T07:51:35.183Z,30.8
2023-02-14T07:57:13.246Z,27.8
2023-02-14T08:02:51.106Z,26.4
2023-02-14T08:08:29.632Z,25.3
2023-02-14T08:14:07.458Z,26.8
2023-02-14T08:19:44.669Z,30.1
2023-02-14T08:25:22.498Z,27.6
2023-02-14T08:30:44.322Z,26.8
2023-02-14T08:36:36.773Z,25.2
2023-02-14T08:42:15.516Z,27.1
2023-02-14T08:47:53.147Z,30.1
2023-02-14T08:53:31.564Z,27.8
2023-02-14T08:59:09.163Z,26.7
2023-02-14T09:04:31.668Z,29.9
2023-02-14T09:10:10.398Z,27.9
2023-02-14T09:15:48.775Z,27.1
2023-02-14T09:21:27.552Z,29.6
2023-02-14T09:26:48.536Z,28.3
2023-02-14T09:32:27.299Z,27.1
2023-02-14T09:37:49.660Z,29.1
2023-02-14T09:43:26.837Z,29.1
2023-02-14T09:48:49.021Z,27.3
2023-02-14T09:54:28.554Z,28.4
2023-02-14T09:59:57.278Z,30.6
2023-02-14T10:05:18.977Z,27.4
2023-02-14T10:10:56.666Z,27.2
2023-02-14T10:16:34.011Z,30.3
2023-02-14T10:22:10.936Z,27.7
2023-02-14T10:27:33.637Z,26.9
2023-02-14T10:33:14.158Z,29.4
2023-02-14T10:38:51.399Z,28.4
2023-02-14T10:44:31.621Z,27.1
2023-02-14T10:50:11.765Z,28.5
2023-02-14T10:56:04.404Z,30.4
2023-02-14T11:01:41.736Z,27.3
2023-02-14T11:07:21.139Z,27.4
2023-02-14T11:12:58.388Z,30.2
2023-02-14T11:18:33.866Z,27.5
2023-02-14T11:24:12.365Z,26.8
2023-02-14T11:29:35.699Z,29.5
2023-02-14T11:34:42.835Z,28.4
2023-02-14T11:40:06.962Z,26.9
2023-02-14T11:45:58.708Z,28.1
2023-02-14T11:51:55.426Z,30.5
2023-02-14T11:57:34.155Z,27.3
2023-02-14T12:02:55.680Z,26.9
2023-02-14T12:08:39.103Z,30
2023-02-14T12:14:17.628Z,27.6
2023-02-14T12:19:54.130Z,26.8
2023-02-14T12:25:16.047Z,29.4
2023-02-14T12:30:39.459Z,28.6
2023-02-14T12:36:19.019Z,27
2023-02-14T12:41:56.518Z,28.7
2023-02-14T12:47:35.234Z,29.9
2023-02-14T12:53:12.331Z,27.3
2023-02-14T12:58:36.257Z,27.7
2023-02-14T13:04:27.718Z,30.3
2023-02-14T13:10:04.372Z,27.5
2023-02-14T13:15:41.352Z,26.7
2023-02-14T13:21:05.011Z,29.6
2023-02-14T13:26:43.726Z,28.1
2023-02-14T13:32:21.467Z,26.3
2023-02-14T13:38:00.409Z,28.9
2023-02-14T13:43:37.159Z,28.8
2023-02-14T13:48:57.785Z,27.1
2023-02-14T13:54:37.402Z,28.2
2023-02-14T14:00:15.206Z,30.5
2023-02-14T14:05:52.030Z,27.4
2023-02-14T14:11:32.665Z,26.3
2023-02-14T14:17:09.861Z,29.9
2023-02-14T14:22:48.233Z,27.4
2023-02-14T14:28:26.680Z,25.9
2023-02-14T14:34:04.183Z,29.2
2023-02-14T14:39:27.550Z,28.4
2023-02-14T14:44:37.915Z,26.9
2023-02-14T14:49:59.595Z,28.4
2023-02-14T14:55:20.557Z,30.3
2023-02-14T15:00:43.788Z,26.4
2023-02-14T15:06:08.497Z,25.7
2023-02-14T15:11:29.882Z,25.4
2023-02-14T15:16:54.905Z,25.3
2023-02-14T15:22:17.949Z,25.2
2023-02-14T15:27:38.679Z,25
2023-02-14T15:33:03.589Z,24.8
2023-02-14T15:38:41.217Z,24.4
2023-02-14T15:44:19.527Z,24.1
2023-02-14T15:49:59.704Z,23.8
2023-02-14T15:55:37.879Z,23.5
2023-02-14T16:01:16.455Z,23.2
2023-02-14T16:06:55.413Z,22.9
2023-02-14T16:12:33.264Z,22.7
2023-02-14T16:17:56.266Z,29.8
2023-02-14T16:23:36.726Z,34.4
2023-02-14T16:28:59.727Z,36.7
2023-02-14T16:34:49.271Z,40.4
2023-02-14T16:40:29.522Z,42.1
2023-02-14T16:46:06.684Z,42.3
2023-02-14T16:51:45.503Z,41.1
2023-02-14T16:57:27.701Z,38.1
2023-02-14T17:03:05.512Z,38.9
2023-02-14T17:08:42.664Z,36.8
2023-02-14T17:14:06.303Z,41.1
2023-02-14T17:19:44.482Z,40.8
2023-02-14T17:25:20.804Z,38.3
2023-02-14T17:30:44.349Z,41.3
2023-02-14T17:36:06.447Z,41.9
2023-02-14T17:41:44.261Z,42.1
2023-02-14T17:47:23.579Z,42.4
2023-02-14T17:53:01.078Z,42.1
2023-02-14T17:58:37.942Z,42.3
2023-02-14T18:04:01.240Z,41.9
2023-02-14T18:09:37.417Z,41.6
2023-02-14T18:20:24.587Z,41.9
2023-02-14T18:26:02.734Z,42.4
2023-02-14T18:31:41.183Z,42.8
2023-02-14T18:37:04.323Z,42.9
2023-02-14T18:42:41.800Z,42.9
2023-02-14T18:48:19.059Z,42.6
2023-02-14T18:53:41.490Z,42.1
2023-02-14T18:59:19.703Z,38.1
2023-02-14T19:04:57.366Z,37.3
2023-02-14T19:10:19.664Z,37.3
2023-02-14T19:15:56.650Z,40.7
2023-02-14T19:21:18.926Z,39
2023-02-14T19:26:42.027Z,40.6
2023-02-14T19:32:21.215Z,39.3
2023-02-14T19:37:58.927Z,38.2
2023-02-14T19:43:37.147Z,38.9
2023-02-14T19:49:43.131Z,37.4
2023-02-14T19:55:12.696Z,39.2
2023-02-14T20:00:19.796Z,37.3
2023-02-14T20:05:42.833Z,39.1
2023-02-14T20:11:20.113Z,39.5
2023-02-14T20:17:07.537Z,37.3
2023-02-14T20:22:30.949Z,38.3
2023-02-14T20:28:08.155Z,37.1
2023-02-14T20:33:48.000Z,36.9
2023-02-14T20:39:25.219Z,36.1
2023-02-14T20:45:00.950Z,36.2
2023-02-14T20:50:39.073Z,36.1
2023-02-14T20:56:18.654Z,35.4
2023-02-14T21:01:39.708Z,34.5
2023-02-14T21:07:18.274Z,33.4
2023-02-14T21:12:56.742Z,32.2
2023-02-14T21:18:33.371Z,31.2
2023-02-14T21:23:55.817Z,30.4
2023-02-14T21:29:20.141Z,29.9
2023-02-14T21:34:58.307Z,29.3
2023-02-14T21:40:21.537Z,28.8
2023-02-14T21:45:44.697Z,28.4
2023-02-14T21:51:06.479Z,28.1
2023-02-14T21:56:44.145Z,27.8
2023-02-14T22:02:22.407Z,27.4
2023-02-14T22:08:00.309Z,27.1
2023-02-14T22:13:37.622Z,26.7
2023-02-14T22:19:03.892Z,26.4
2023-02-14T22:24:25.437Z,26.1
2023-02-14T22:30:03.003Z,25.8
2023-02-14T22:35:40.939Z,25.4
2023-02-14T22:41:01.806Z,25.1
2023-02-14T22:46:38.979Z,25.3
2023-02-14T22:52:16.843Z,24.8
2023-02-14T22:57:54.399Z,28.9
2023-02-14T23:03:17.245Z,28.3
2023-02-14T23:08:39.354Z,26.9
2023-02-14T23:14:00.635Z,25.4
2023-02-14T23:19:38.656Z,24.9
2023-02-14T23:25:16.315Z,28.2
2023-02-14T23:30:38.469Z,29.2
2023-02-14T23:36:17.576Z,27.2
2023-02-14T23:41:55.222Z,25.8
2023-02-14T23:47:34.173Z,25.1
2023-02-14T23:52:57.508Z,27.6
2023-02-14T23:58:33.794Z,30.1
